sensor_id;sensor_type;location;lat;lon;timestamp;temperature;humidity
7212;DHT22;3647;48.792;9.802;2022-09-20T00:01:13;10.00;99.90
7212;DHT22;3647;48.792;9.802;2022-09-20T00:03:42;10.00;99.90
7212;DHT22;3647;48.792;9.802;2022-09-20T00:06:11;10.00;99.90
7212;DHT22;3647;48.792;9.802;2022-09-20T04:13:17;9.30;99.90
7212;DHT22;3647;48.792;9.802;2022-09-20T04:16:00;9.30;99.90
7212;DHT22;3647;48.792;9.802;2022-09-20T04:18:34;9.30;99.90
7212;DHT22;3647;48.792;9.802;2022-09-20T04:21:06;9.30;99.90
7212;DHT22;3647;48.792;9.802;2022-09-20T04:23:44;9.20;99.90
7212;DHT22;3647;48.792;9.802;2022-09-20T04:26:14;9.20;99.90
7212;DHT22;3647;48.792;9.802;2022-09-20T04:28:51;9.20;99.90
7212;DHT22;3647;48.792;9.802;2022-09-20T04:31:28;9.20;99.90
7212;DHT22;3647;48.792;9.802;2022-09-20T04:33:58;9.20;99.90
7212;DHT22;3647;48.792;9.802;2022-09-20T04:36:52;9.20;99.90
7212;DHT22;3647;48.792;9.802;2022-09-20T04:39:28;9.10;99.90
7212;DHT22;3647;48.792;9.802;2022-09-20T04:43:00;9.20;99.90
7212;DHT22;3647;48.792;9.802;2022-09-20T04:45:54;9.10;99.90
7212;DHT22;3647;48.792;9.802;2022-09-20T04:49:00;9.10;99.90
7212;DHT22;3647;48.792;9.802;2022-09-20T04:52:11;9.20;99.90
7212;DHT22;3647;48.792;9.802;2022-09-20T07:43:40;12.80;99.90
7212;DHT22;3647;48.792;9.802;2022-09-20T07:48:35;12.20;99.90
7212;DHT22;3647;48.792;9.802;2022-09-20T07:51:04;12.30;99.90
7212;DHT22;3647;48.792;9.802;2022-09-20T07:56:00;12.60;99.90
7212;DHT22;3647;48.792;9.802;2022-09-20T07:58:28;12.60;99.90
7212;DHT22;3647;48.792;9.802;2022-09-20T08:00:58;12.60;99.90
7212;DHT22;3647;48.792;9.802;2022-09-20T08:03:25;12.60;99.90
7212;DHT22;3647;48.792;9.802;2022-09-20T08:05:58;12.80;99.90
7212;DHT22;3647;48.792;9.802;2022-09-20T08:08:25;13.30;99.90
7212;DHT22;3647;48.792;9.802;2022-09-20T08:13:20;13.50;99.90
7212;DHT22;3647;48.792;9.802;2022-09-20T08:15:46;13.50;99.90
7212;DHT22;3647;48.792;9.802;2022-09-20T08:18:15;13.40;99.90
7212;DHT22;3647;48.792;9.802;2022-09-20T08:20:42;13.50;99.90
7212;DHT22;3647;48.792;9.802;2022-09-20T08:25:35;13.60;99.90
7212;DHT22;3647;48.792;9.802;2022-09-20T08:30:29;14.00;99.90
7212;DHT22;3647;48.792;9.802;2022-09-20T08:32:56;14.20;99.90
7212;DHT22;3647;48.792;9.802;2022-09-20T08:35:25;14.30;99.90
7212;DHT22;3647;48.792;9.802;2022-09-20T08:40:23;13.80;99.90
7212;DHT22;3647;48.792;9.802;2022-09-20T08:42:50;13.30;99.90
7212;DHT22;3647;48.792;9.802;2022-09-20T08:45:21;13.30;99.90
7212;DHT22;3647;48.792;9.802;2022-09-20T08:47:50;13.50;99.90
7212;DHT22;3647;48.792;9.802;2022-09-20T08:50:19;13.50;99.90
7212;DHT22;3647;48.792;9.802;2022-09-20T08:52:49;13.60;99.90
7212;DHT22;3647;48.792;9.802;2022-09-20T08:55:20;14.10;99.90
7212;DHT22;3647;48.792;9.802;2022-09-20T08:57:49;14.10;99.90
7212;DHT22;3647;48.792;9.802;2022-09-20T09:00:19;14.00;99.90
7212;DHT22;3647;48.792;9.802;2022-09-20T09:02:46;14.00;99.90
7212;DHT22;3647;48.792;9.802;2022-09-20T09:05:31;13.80;99.90
7212;DHT22;3647;48.792;9.802;2022-09-20T09:08:02;14.00;99.90
7212;DHT22;3647;48.792;9.802;2022-09-20T09:10:36;14.20;99.90
7212;DHT22;3647;48.792;9.802;2022-09-20T09:13:04;14.50;99.90
7212;DHT22;3647;48.792;9.802;2022-09-20T09:15:33;16.30;99.90
7212;DHT22;3647;48.792;9.802;2022-09-20T09:20:39;14.40;99.90
7212;DHT22;3647;48.792;9.802;2022-09-20T09:23:10;14.20;99.90
7212;DHT22;3647;48.792;9.802;2022-09-20T09:25:46;13.80;99.90
7212;DHT22;3647;48.792;9.802;2022-09-20T09:28:14;13.70;99.90
7212;DHT22;3647;48.792;9.802;2022-09-20T09:30:42;13.60;99.90
7212;DHT22;3647;48.792;9.802;2022-09-20T09:33:30;13.60;99.90
7212;DHT22;3647;48.792;9.802;2022-09-20T09:35:59;14.20;99.90
7212;DHT22;3647;48.792;9.802;2022-09-20T09:38:33;13.70;99.90
7212;DHT22;3647;48.792;9.802;2022-09-20T09:41:02;14.10;99.90
7212;DHT22;3647;48.792;9.802;2022-09-20T09:43:32;14.30;99.90
7212;DHT22;3647;48.792;9.802;2022-09-20T09:46:16;14.50;99.90
7212;DHT22;3647;48.792;9.802;2022-09-20T09:48:44;14.60;99.90
7212;DHT22;3647;48.792;9.802;2022-09-20T09:51:15;14.40;99.90
7212;DHT22;3647;48.792;9.802;2022-09-20T09:53:45;14.20;99.90
7212;DHT22;3647;48.792;9.802;2022-09-20T09:56:22;14.10;99.90
7212;DHT22;3647;48.792;9.802;2022-09-20T09:59:07;13.90;99.90
7212;DHT22;3647;48.792;9.802;2022-09-20T10:01:46;14.00;99.90
7212;DHT22;3647;48.792;9.802;2022-09-20T10:04:19;13.90;99.90
7212;DHT22;3647;48.792;9.802;2022-09-20T10:06:53;14.00;99.90
7212;DHT22;3647;48.792;9.802;2022-09-20T10:09:34;14.00;99.90
7212;DHT22;3647;48.792;9.802;2022-09-20T10:12:18;14.00;99.90
7212;DHT22;3647;48.792;9.802;2022-09-20T10:14:57;13.90;99.90
7212;DHT22;3647;48.792;9.802;2022-09-20T10:17:39;14.00;99.90
7212;DHT22;3647;48.792;9.802;2022-09-20T10:20:24;14.00;99.90
7212;DHT22;3647;48.792;9.802;2022-09-20T10:22:57;14.20;99.90
7212;DHT22;3647;48.792;9.802;2022-09-20T10:25:38;14.40;99.90
7212;DHT22;3647;48.792;9.802;2022-09-20T10:28:18;14.80;99.90
7212;DHT22;3647;48.792;9.802;2022-09-20T10:30:54;14.90;99.90
7212;DHT22;3647;48.792;9.802;2022-09-20T10:33:34;14.80;99.90
7212;DHT22;3647;48.792;9.802;2022-09-20T10:36:15;14.60;99.90
7212;DHT22;3647;48.792;9.802;2022-09-20T10:38:49;11.80;99.90
7212;DHT22;3647;48.792;9.802;2022-09-20T10:41:30;14.20;99.90
7212;DHT22;3647;48.792;9.802;2022-09-20T10:44:37;14.00;99.90
7212;DHT22;3647;48.792;9.802;2022-09-20T10:47:12;13.60;99.90
7212;DHT22;3647;48.792;9.802;2022-09-20T10:49:42;13.90;99.90
7212;DHT22;3647;48.792;9.802;2022-09-20T10:52:25;13.60;99.90
7212;DHT22;3647;48.792;9.802;2022-09-20T10:55:05;13.30;99.90
7212;DHT22;3647;48.792;9.802;2022-09-20T10:57:47;13.60;99.90
7212;DHT22;3647;48.792;9.802;2022-09-20T11:00:21;13.50;99.90
7212;DHT22;3647;48.792;9.802;2022-09-20T11:03:02;13.50;99.90
7212;DHT22;3647;48.792;9.802;2022-09-20T11:05:42;13.60;99.90
7212;DHT22;3647;48.792;9.802;2022-09-20T11:08:12;13.50;99.90
7212;DHT22;3647;48.792;9.802;2022-09-20T11:10:44;13.70;99.90
7212;DHT22;3647;48.792;9.802;2022-09-20T11:13:21;13.70;99.90
7212;DHT22;3647;48.792;9.802;2022-09-20T11:15:55;13.70;99.90
7212;DHT22;3647;48.792;9.802;2022-09-20T11:18:29;13.60;99.90
7212;DHT22;3647;48.792;9.802;2022-09-20T11:21:02;13.60;99.90
7212;DHT22;3647;48.792;9.802;2022-09-20T11:23:39;13.70;99.90
7212;DHT22;3647;48.792;9.802;2022-09-20T11:26:10;13.70;99.90
7212;DHT22;3647;48.792;9.802;2022-09-20T11:28:43;13.60;99.90
7212;DHT22;3647;48.792;9.802;2022-09-20T11:31:22;13.60;99.90
7212;DHT22;3647;48.792;9.802;2022-09-20T11:33:54;13.90;99.90
7212;DHT22;3647;48.792;9.802;2022-09-20T11:36:24;14.30;99.90
7212;DHT22;3647;48.792;9.802;2022-09-20T11:38:55;14.50;99.90
7212;DHT22;3647;48.792;9.802;2022-09-20T11:41:25;14.60;99.90
7212;DHT22;3647;48.792;9.802;2022-09-20T11:43:57;14.90;99.90
7212;DHT22;3647;48.792;9.802;2022-09-20T11:46:28;15.20;99.90
7212;DHT22;3647;48.792;9.802;2022-09-20T11:48:59;15.20;99.90
7212;DHT22;3647;48.792;9.802;2022-09-20T11:51:46;15.60;99.90
7212;DHT22;3647;48.792;9.802;2022-09-20T11:57:04;16.20;99.90
7212;DHT22;3647;48.792;9.802;2022-09-20T11:59:36;16.20;99.90
7212;DHT22;3647;48.792;9.802;2022-09-20T12:02:16;16.50;99.90
7212;DHT22;3647;48.792;9.802;2022-09-20T12:04:44;16.50;99.90
7212;DHT22;3647;48.792;9.802;2022-09-20T12:07:16;16.70;99.90
7212;DHT22;3647;48.792;9.802;2022-09-20T12:09:50;16.90;99.90
7212;DHT22;3647;48.792;9.802;2022-09-20T12:12:31;17.50;99.90
7212;DHT22;3647;48.792;9.802;2022-09-20T12:15:04;16.50;99.90
7212;DHT22;3647;48.792;9.802;2022-09-20T12:18:14;16.10;99.90
7212;DHT22;3647;48.792;9.802;2022-09-20T12:24:01;14.90;99.90
7212;DHT22;3647;48.792;9.802;2022-09-20T12:26:38;14.80;99.90
7212;DHT22;3647;48.792;9.802;2022-09-20T12:32:55;15.00;99.90
7212;DHT22;3647;48.792;9.802;2022-09-20T12:35:57;15.00;99.90
7212;DHT22;3647;48.792;9.802;2022-09-20T12:38:36;15.10;99.90
7212;DHT22;3647;48.792;9.802;2022-09-20T12:41:07;15.40;99.90
7212;DHT22;3647;48.792;9.802;2022-09-20T12:43:45;15.20;99.90
7212;DHT22;3647;48.792;9.802;2022-09-20T12:46:21;14.50;99.90
7212;DHT22;3647;48.792;9.802;2022-09-20T12:48:50;14.40;99.90
7212;DHT22;3647;48.792;9.802;2022-09-20T12:51:23;14.50;99.90
7212;DHT22;3647;48.792;9.802;2022-09-20T12:54:11;14.70;99.90
7212;DHT22;3647;48.792;9.802;2022-09-20T12:56:39;14.60;99.90
7212;DHT22;3647;48.792;9.802;2022-09-20T12:59:20;14.70;99.90
7212;DHT22;3647;48.792;9.802;2022-09-20T13:07:43;14.30;99.90
7212;DHT22;3647;48.792;9.802;2022-09-20T13:10:27;14.30;99.90
7212;DHT22;3647;48.792;9.802;2022-09-20T13:12:59;14.30;99.90
7212;DHT22;3647;48.792;9.802;2022-09-20T13:15:28;14.20;99.90
7212;DHT22;3647;48.792;9.802;2022-09-20T13:17:59;14.10;99.90
7212;DHT22;3647;48.792;9.802;2022-09-20T13:20:27;13.90;99.90
7212;DHT22;3647;48.792;9.802;2022-09-20T13:22:57;13.80;99.90
7212;DHT22;3647;48.792;9.802;2022-09-20T13:27:58;14.00;99.90
7212;DHT22;3647;48.792;9.802;2022-09-20T13:30:28;13.80;99.90
7212;DHT22;3647;48.792;9.802;2022-09-20T13:35:24;14.00;99.90
7212;DHT22;3647;48.792;9.802;2022-09-20T13:37:59;14.20;99.90
7212;DHT22;3647;48.792;9.802;2022-09-20T13:40:32;14.40;99.90
7212;DHT22;3647;48.792;9.802;2022-09-20T13:43:02;14.40;99.90
7212;DHT22;3647;48.792;9.802;2022-09-20T13:45:30;14.60;99.90
7212;DHT22;3647;48.792;9.802;2022-09-20T13:47:59;14.40;99.90
7212;DHT22;3647;48.792;9.802;2022-09-20T13:50:33;14.60;99.90
7212;DHT22;3647;48.792;9.802;2022-09-20T13:53:14;14.80;99.90
7212;DHT22;3647;48.792;9.802;2022-09-20T13:55:42;14.60;99.90
7212;DHT22;3647;48.792;9.802;2022-09-20T13:58:18;14.80;99.90
7212;DHT22;3647;48.792;9.802;2022-09-20T14:00:47;14.40;99.90
7212;DHT22;3647;48.792;9.802;2022-09-20T14:03:16;14.30;99.90
7212;DHT22;3647;48.792;9.802;2022-09-20T14:05:45;14.30;99.90
7212;DHT22;3647;48.792;9.802;2022-09-20T14:08:19;14.40;99.90
7212;DHT22;3647;48.792;9.802;2022-09-20T14:10:47;14.50;99.90
7212;DHT22;3647;48.792;9.802;2022-09-20T14:13:16;14.50;99.90
7212;DHT22;3647;48.792;9.802;2022-09-20T14:15:46;14.50;99.90
7212;DHT22;3647;48.792;9.802;2022-09-20T14:18:15;14.50;99.90
7212;DHT22;3647;48.792;9.802;2022-09-20T14:20:43;14.70;99.90
7212;DHT22;3647;48.792;9.802;2022-09-20T14:23:21;14.80;99.90
7212;DHT22;3647;48.792;9.802;2022-09-20T14:26:06;14.90;99.90
7212;DHT22;3647;48.792;9.802;2022-09-20T14:28:33;15.10;99.90
7212;DHT22;3647;48.792;9.802;2022-09-20T14:31:05;15.20;99.90
7212;DHT22;3647;48.792;9.802;2022-09-20T14:33:32;15.30;99.90
7212;DHT22;3647;48.792;9.802;2022-09-20T14:35:59;15.30;99.90
7212;DHT22;3647;48.792;9.802;2022-09-20T14:38:27;15.40;99.90
7212;DHT22;3647;48.792;9.802;2022-09-20T14:40:54;15.00;99.90
7212;DHT22;3647;48.792;9.802;2022-09-20T14:43:27;15.20;99.90
7212;DHT22;3647;48.792;9.802;2022-09-20T14:45:57;15.40;99.90
7212;DHT22;3647;48.792;9.802;2022-09-20T14:48:33;15.60;99.90
7212;DHT22;3647;48.792;9.802;2022-09-20T14:51:19;15.90;99.90
7212;DHT22;3647;48.792;9.802;2022-09-20T14:53:50;15.90;99.90
7212;DHT22;3647;48.792;9.802;2022-09-20T14:56:29;16.20;99.90
7212;DHT22;3647;48.792;9.802;2022-09-20T14:59:17;16.50;99.90
7212;DHT22;3647;48.792;9.802;2022-09-20T15:01:53;16.40;99.90
7212;DHT22;3647;48.792;9.802;2022-09-20T15:04:22;16.50;99.90
7212;DHT22;3647;48.792;9.802;2022-09-20T15:09:19;16.50;99.90
7212;DHT22;3647;48.792;9.802;2022-09-20T15:11:58;16.50;99.90
7212;DHT22;3647;48.792;9.802;2022-09-20T15:14:24;16.40;99.90
7212;DHT22;3647;48.792;9.802;2022-09-20T15:16:51;16.50;99.90
7212;DHT22;3647;48.792;9.802;2022-09-20T15:21:45;16.20;99.90
7212;DHT22;3647;48.792;9.802;2022-09-20T15:26:43;16.10;99.90
7212;DHT22;3647;48.792;9.802;2022-09-20T15:29:13;16.20;99.90
7212;DHT22;3647;48.792;9.802;2022-09-20T15:36:37;16.00;99.90
7212;DHT22;3647;48.792;9.802;2022-09-20T15:39:07;16.00;99.90
7212;DHT22;3647;48.792;9.802;2022-09-20T15:44:03;15.90;99.90
7212;DHT22;3647;48.792;9.802;2022-09-20T15:46:31;15.70;99.90
7212;DHT22;3647;48.792;9.802;2022-09-20T15:48:59;15.50;99.90
7212;DHT22;3647;48.792;9.802;2022-09-20T15:51:27;15.40;99.90
7212;DHT22;3647;48.792;9.802;2022-09-20T15:53:56;15.40;99.90
7212;DHT22;3647;48.792;9.802;2022-09-20T15:56:25;15.40;99.90
7212;DHT22;3647;48.792;9.802;2022-09-20T15:58:53;15.30;99.90
7212;DHT22;3647;48.792;9.802;2022-09-20T16:01:25;15.10;99.90
7212;DHT22;3647;48.792;9.802;2022-09-20T16:06:20;14.90;99.90
7212;DHT22;3647;48.792;9.802;2022-09-20T16:11:15;14.60;99.90
7212;DHT22;3647;48.792;9.802;2022-09-20T16:13:44;14.50;99.90
7212;DHT22;3647;48.792;9.802;2022-09-20T16:18:41;14.50;99.90
7212;DHT22;3647;48.792;9.802;2022-09-20T16:21:26;14.30;99.90
7212;DHT22;3647;48.792;9.802;2022-09-20T16:23:54;14.30;99.90
7212;DHT22;3647;48.792;9.802;2022-09-20T16:26:22;14.20;99.90
7212;DHT22;3647;48.792;9.802;2022-09-20T16:28:50;14.20;99.90
7212;DHT22;3647;48.792;9.802;2022-09-20T16:31:31;14.10;99.90
7212;DHT22;3647;48.792;9.802;2022-09-20T16:34:01;14.10;99.90
7212;DHT22;3647;48.792;9.802;2022-09-20T16:36:28;14.00;99.90
7212;DHT22;3647;48.792;9.802;2022-09-20T16:41:23;13.90;99.90
7212;DHT22;3647;48.792;9.802;2022-09-20T16:51:15;13.80;99.90
7212;DHT22;3647;48.792;9.802;2022-09-20T16:56:17;13.50;99.90
7212;DHT22;3647;48.792;9.802;2022-09-20T17:01:11;13.40;99.90
7212;DHT22;3647;48.792;9.802;2022-09-20T17:06:07;13.20;99.90
7212;DHT22;3647;48.792;9.802;2022-09-20T17:08:36;13.10;99.90
7212;DHT22;3647;48.792;9.802;2022-09-20T17:11:05;12.90;99.90
7212;DHT22;3647;48.792;9.802;2022-09-20T17:13:33;12.90;99.90
7212;DHT22;3647;48.792;9.802;2022-09-20T17:16:02;12.80;99.90
7212;DHT22;3647;48.792;9.802;2022-09-20T17:18:29;12.50;99.90
7212;DHT22;3647;48.792;9.802;2022-09-20T17:26:02;12.30;99.90
7212;DHT22;3647;48.792;9.802;2022-09-20T17:28:33;12.10;99.90
7212;DHT22;3647;48.792;9.802;2022-09-20T17:31:01;12.00;99.90
7212;DHT22;3647;48.792;9.802;2022-09-20T17:35:55;11.80;99.90
7212;DHT22;3647;48.792;9.802;2022-09-20T17:40:58;11.60;99.90
7212;DHT22;3647;48.792;9.802;2022-09-20T17:43:27;11.40;99.90
7212;DHT22;3647;48.792;9.802;2022-09-20T17:46:03;11.50;99.90
7212;DHT22;3647;48.792;9.802;2022-09-20T17:48:30;11.30;99.90
7212;DHT22;3647;48.792;9.802;2022-09-20T17:51:02;11.20;99.90
7212;DHT22;3647;48.792;9.802;2022-09-20T17:53:31;11.10;99.90
7212;DHT22;3647;48.792;9.802;2022-09-20T17:55:58;11.20;99.90
7212;DHT22;3647;48.792;9.802;2022-09-20T17:58:27;11.00;99.90
7212;DHT22;3647;48.792;9.802;2022-09-20T18:01:01;10.90;99.90
7212;DHT22;3647;48.792;9.802;2022-09-20T18:03:27;10.80;99.90
7212;DHT22;3647;48.792;9.802;2022-09-20T18:05:54;10.70;99.90
7212;DHT22;3647;48.792;9.802;2022-09-20T18:10:54;10.50;99.90
7212;DHT22;3647;48.792;9.802;2022-09-20T18:15:50;10.40;99.90
7212;DHT22;3647;48.792;9.802;2022-09-20T18:18:16;10.40;99.90
7212;DHT22;3647;48.792;9.802;2022-09-20T18:20:44;10.30;99.90
7212;DHT22;3647;48.792;9.802;2022-09-20T18:23:11;10.20;99.90
7212;DHT22;3647;48.792;9.802;2022-09-20T18:30:59;9.90;99.90
7212;DHT22;3647;48.792;9.802;2022-09-20T18:33:27;9.90;99.90
7212;DHT22;3647;48.792;9.802;2022-09-20T18:35:59;9.70;99.90
7212;DHT22;3647;48.792;9.802;2022-09-20T18:40:54;9.50;99.90
7212;DHT22;3647;48.792;9.802;2022-09-20T18:45:51;9.60;99.90
7212;DHT22;3647;48.792;9.802;2022-09-20T18:48:20;9.50;99.90
7212;DHT22;3647;48.792;9.802;2022-09-20T18:50:58;9.40;99.90
7212;DHT22;3647;48.792;9.802;2022-09-20T18:53:26;9.40;99.90
7212;DHT22;3647;48.792;9.802;2022-09-20T18:58:21;9.10;99.90
7212;DHT22;3647;48.792;9.802;2022-09-20T19:00:58;9.20;99.90
7212;DHT22;3647;48.792;9.802;2022-09-20T19:03:40;9.70;99.90
7212;DHT22;3647;48.792;9.802;2022-09-20T19:06:12;9.10;99.90
7212;DHT22;3647;48.792;9.802;2022-09-20T19:08:46;9.00;99.90
7212;DHT22;3647;48.792;9.802;2022-09-20T19:11:25;9.00;99.90
7212;DHT22;3647;48.792;9.802;2022-09-20T19:13:58;9.00;99.90
7212;DHT22;3647;48.792;9.802;2022-09-20T19:16:28;8.80;99.90
7212;DHT22;3647;48.792;9.802;2022-09-20T19:21:59;8.80;99.90
7212;DHT22;3647;48.792;9.802;2022-09-20T19:24:53;8.80;99.90
7212;DHT22;3647;48.792;9.802;2022-09-20T19:27:23;9.00;99.90
7212;DHT22;3647;48.792;9.802;2022-09-20T19:29:50;8.80;99.90
7212;DHT22;3647;48.792;9.802;2022-09-20T19:32:18;8.90;99.90
7212;DHT22;3647;48.792;9.802;2022-09-20T19:34:53;9.00;99.90
7212;DHT22;3647;48.792;9.802;2022-09-20T19:37:29;9.00;99.90
7212;DHT22;3647;48.792;9.802;2022-09-20T19:40:11;8.70;99.90
7212;DHT22;3647;48.792;9.802;2022-09-20T19:42:47;8.90;99.90
7212;DHT22;3647;48.792;9.802;2022-09-20T19:45:25;9.00;99.90
7212;DHT22;3647;48.792;9.802;2022-09-20T19:48:01;9.00;99.90
7212;DHT22;3647;48.792;9.802;2022-09-20T19:50:36;9.10;99.90
7212;DHT22;3647;48.792;9.802;2022-09-20T19:53:04;9.10;99.90
7212;DHT22;3647;48.792;9.802;2022-09-20T19:55:32;9.10;99.90
7212;DHT22;3647;48.792;9.802;2022-09-20T19:58:00;9.10;99.90
7212;DHT22;3647;48.792;9.802;2022-09-20T20:00:27;8.90;99.90
7212;DHT22;3647;48.792;9.802;2022-09-20T20:05:22;9.20;99.90
7212;DHT22;3647;48.792;9.802;2022-09-20T20:08:00;9.10;99.90
7212;DHT22;3647;48.792;9.802;2022-09-20T20:10:36;8.90;99.90
7212;DHT22;3647;48.792;9.802;2022-09-20T20:13:09;9.00;99.90
7212;DHT22;3647;48.792;9.802;2022-09-20T20:15:57;9.00;99.90
7212;DHT22;3647;48.792;9.802;2022-09-20T20:18:33;8.90;99.90
7212;DHT22;3647;48.792;9.802;2022-09-20T20:21:05;8.90;99.90
7212;DHT22;3647;48.792;9.802;2022-09-20T20:23:50;8.90;99.90
7212;DHT22;3647;48.792;9.802;2022-09-20T20:26:21;8.80;99.90
7212;DHT22;3647;48.792;9.802;2022-09-20T20:28:48;8.80;99.90
7212;DHT22;3647;48.792;9.802;2022-09-20T20:31:17;8.60;99.90
7212;DHT22;3647;48.792;9.802;2022-09-20T20:36:11;8.50;99.90
7212;DHT22;3647;48.792;9.802;2022-09-20T20:38:39;8.40;99.90
7212;DHT22;3647;48.792;9.802;2022-09-20T20:41:09;8.20;99.90
7212;DHT22;3647;48.792;9.802;2022-09-20T20:43:37;8.30;99.90
7212;DHT22;3647;48.792;9.802;2022-09-20T20:46:07;8.30;99.90
7212;DHT22;3647;48.792;9.802;2022-09-20T20:48:34;8.30;99.90
7212;DHT22;3647;48.792;9.802;2022-09-20T20:51:03;8.30;99.90
7212;DHT22;3647;48.792;9.802;2022-09-20T20:53:31;8.10;99.90
7212;DHT22;3647;48.792;9.802;2022-09-20T20:56:03;8.00;99.90
7212;DHT22;3647;48.792;9.802;2022-09-20T20:58:34;8.10;99.90
7212;DHT22;3647;48.792;9.802;2022-09-20T21:01:07;7.90;99.90
7212;DHT22;3647;48.792;9.802;2022-09-20T21:03:34;8.00;99.90
7212;DHT22;3647;48.792;9.802;2022-09-20T21:08:30;7.90;99.90
7212;DHT22;3647;48.792;9.802;2022-09-20T21:11:02;7.80;99.90
7212;DHT22;3647;48.792;9.802;2022-09-20T21:16:06;7.70;99.90
7212;DHT22;3647;48.792;9.802;2022-09-20T21:18:34;7.60;99.90
7212;DHT22;3647;48.792;9.802;2022-09-20T21:21:02;7.70;99.90
7212;DHT22;3647;48.792;9.802;2022-09-20T21:23:32;7.60;99.90
7212;DHT22;3647;48.792;9.802;2022-09-20T21:26:01;7.60;99.90
7212;DHT22;3647;48.792;9.802;2022-09-20T21:30:58;7.70;99.90
7212;DHT22;3647;48.792;9.802;2022-09-20T21:33:30;7.60;99.90
